createdAt,value
2019-02-26T00:01:59.920Z,9.43
2019-02-26T00:05:05.671Z,8.60
2019-02-26T00:08:11.468Z,9.37
2019-02-26T00:11:17.246Z,8.10
2019-02-26T00:14:24.854Z,8.00
2019-02-26T00:17:30.540Z,7.23
2019-02-26T00:20:37.398Z,7.90
2019-02-26T00:23:44.381Z,7.20
2019-02-26T00:26:51.248Z,7.03
2019-02-26T00:29:57.195Z,7.67
2019-02-26T00:33:05.176Z,6.97
2019-02-26T00:36:11.229Z,7.70
2019-02-26T00:39:17.930Z,7.33
2019-02-26T00:42:24.345Z,6.93
2019-02-26T00:45:32.325Z,7.87
2019-02-26T00:48:40.780Z,8.23
2019-02-26T00:51:48.293Z,7.33
2019-02-26T00:54:57.608Z,7.27
2019-02-26T00:58:03.291Z,7.40
2019-02-26T01:01:12.230Z,7.40
2019-02-26T01:04:17.445Z,8.33
2019-02-26T01:07:23.923Z,7.80
2019-02-26T01:10:30.876Z,7.83
2019-02-26T01:13:36.738Z,7.97
2019-02-26T01:16:43.790Z,7.93
2019-02-26T01:19:50.195Z,7.53
2019-02-26T01:22:55.966Z,6.57
2019-02-26T01:26:01.735Z,7.43
2019-02-26T01:29:07.609Z,6.57
2019-02-26T01:32:15.605Z,6.27
2019-02-26T01:35:21.033Z,6.10
2019-02-26T01:38:26.807Z,7.50
2019-02-26T01:41:32.589Z,6.80
2019-02-26T01:44:39.907Z,6.97
2019-02-26T01:47:48.194Z,7.47
2019-02-26T01:50:54.488Z,7.23
2019-02-26T01:54:00.747Z,6.67
2019-02-26T01:57:08.569Z,7.67
2019-02-26T02:00:15.450Z,8.07
2019-02-26T02:03:23.005Z,7.73
2019-02-26T02:06:30.364Z,6.87
2019-02-26T02:09:36.455Z,7.20
2019-02-26T02:12:42.210Z,7.53
2019-02-26T02:15:48.019Z,7.73
2019-02-26T02:18:55.343Z,7.90
2019-02-26T02:22:01.247Z,7.00
2019-02-26T02:25:07.923Z,7.60
2019-02-26T02:28:13.701Z,7.17
2019-02-26T02:31:22.017Z,6.77
2019-02-26T02:34:29.570Z,7.00
2019-02-26T02:37:34.513Z,6.90
2019-02-26T02:40:42.991Z,6.77
2019-02-26T02:43:47.768Z,6.83
2019-02-26T02:46:53.533Z,7.10
2019-02-26T02:49:59.298Z,7.27
2019-02-26T02:53:05.219Z,7.00
2019-02-26T02:56:12.898Z,7.27
2019-02-26T02:59:18.477Z,7.10
2019-02-26T03:02:24.287Z,6.27
2019-02-26T03:05:32.098Z,7.33
2019-02-26T03:08:39.394Z,6.07
2019-02-26T03:11:46.481Z,7.27
2019-02-26T03:14:52.463Z,8.17
2019-02-26T03:17:58.208Z,7.60
2019-02-26T03:21:04.873Z,8.10
2019-02-26T03:24:10.791Z,6.90
2019-02-26T03:27:16.588Z,8.27
2019-02-26T03:30:31.941Z,8.33
2019-02-26T03:33:30.043Z,8.03
2019-02-26T03:36:38.265Z,8.40
2019-02-26T03:39:43.521Z,7.57
2019-02-26T03:42:49.266Z,8.97
2019-02-26T03:45:55.061Z,8.20
2019-02-26T03:49:02.703Z,8.27
2019-02-26T03:52:08.363Z,9.20
2019-02-26T03:55:17.882Z,8.87
2019-02-26T03:58:21.878Z,9.37
2019-02-26T04:01:27.871Z,9.73
2019-02-26T04:04:33.805Z,9.70
2019-02-26T04:07:39.804Z,9.90
2019-02-26T04:10:47.570Z,9.63
2019-02-26T04:13:54.556Z,8.87
2019-02-26T04:17:03.020Z,9.07
2019-02-26T04:20:09.202Z,9.37
2019-02-26T04:23:18.712Z,9.17
2019-02-26T04:26:48.867Z,9.07
2019-02-26T04:30:45.289Z,8.23
2019-02-26T04:34:18.514Z,9.00
2019-02-26T04:38:32.879Z,9.53
2019-02-26T04:41:49.897Z,8.77
2019-02-26T04:45:26.772Z,8.77
2019-02-26T04:48:34.632Z,8.57
2019-02-26T04:51:42.684Z,9.30
2019-02-26T04:54:48.072Z,7.70
2019-02-26T04:57:56.143Z,9.67
2019-02-26T05:01:02.013Z,8.43
2019-02-26T05:04:07.823Z,7.23
2019-02-26T05:07:16.320Z,10.23
2019-02-26T05:10:24.265Z,10.10
2019-02-26T05:13:32.149Z,10.60
2019-02-26T05:16:40.187Z,10.27
2019-02-26T05:19:48.268Z,9.33
2019-02-26T05:22:58.461Z,9.67
2019-02-26T05:26:05.225Z,9.40
2019-02-26T05:29:13.978Z,10.50
2019-02-26T05:32:21.801Z,10.43
2019-02-26T05:35:27.231Z,11.57
2019-02-26T05:38:34.872Z,11.30
2019-02-26T05:41:40.817Z,11.87
2019-02-26T05:44:46.650Z,10.87
2019-02-26T05:47:54.739Z,10.87
2019-02-26T05:51:02.954Z,11.47
2019-02-26T05:54:08.173Z,11.57
2019-02-26T05:57:27.208Z,12.17
2019-02-26T06:00:26.336Z,11.73
2019-02-26T06:03:30.177Z,10.43
2019-02-26T06:06:35.936Z,11.97
2019-02-26T06:09:42.698Z,11.50
2019-02-26T06:12:48.493Z,11.07
2019-02-26T06:15:55.279Z,9.83
2019-02-26T06:19:01.759Z,10.37
2019-02-26T06:22:11.590Z,9.40
2019-02-26T06:25:22.790Z,10.07
2019-02-26T06:28:23.732Z,10.40
2019-02-26T06:31:29.641Z,10.67
2019-02-26T06:34:35.432Z,12.20
2019-02-26T06:37:41.346Z,11.77
2019-02-26T06:40:48.976Z,11.73
2019-02-26T06:43:55.113Z,12.37
2019-02-26T06:47:02.616Z,10.93
2019-02-26T06:50:11.127Z,10.80
2019-02-26T06:53:20.977Z,12.20
2019-02-26T06:56:24.261Z,11.70
2019-02-26T06:59:33.799Z,11.90
2019-02-26T07:02:38.523Z,13.03
2019-02-26T07:05:46.467Z,12.43
2019-02-26T07:08:53.481Z,13.40
2019-02-26T07:11:59.588Z,14.17
2019-02-26T07:15:06.048Z,15.43
2019-02-26T07:18:16.354Z,13.70
2019-02-26T07:21:19.317Z,14.07
2019-02-26T07:24:27.045Z,14.53
2019-02-26T07:27:34.189Z,15.37
2019-02-26T07:30:42.288Z,15.40
2019-02-26T07:33:47.633Z,15.53
2019-02-26T07:36:53.546Z,14.53
2019-02-26T07:39:59.334Z,14.53
2019-02-26T07:43:09.106Z,16.30
2019-02-26T07:46:14.600Z,14.00
2019-02-26T07:49:20.282Z,15.17
2019-02-26T07:52:28.304Z,13.30
2019-02-26T07:55:35.361Z,15.77
2019-02-26T07:58:42.965Z,14.17
2019-02-26T08:01:49.743Z,14.60
2019-02-26T08:04:55.638Z,14.30
2019-02-26T08:08:01.409Z,17.30
2019-02-26T08:11:07.185Z,14.70
2019-02-26T08:14:14.340Z,15.93
2019-02-26T08:17:20.526Z,15.27
2019-02-26T08:20:27.906Z,15.00
2019-02-26T08:23:33.795Z,17.20
2019-02-26T08:26:40.479Z,14.33
2019-02-26T08:29:47.108Z,15.23
2019-02-26T08:32:54.261Z,13.07
2019-02-26T08:36:00.458Z,11.93
2019-02-26T08:39:08.445Z,14.57
2019-02-26T08:42:15.134Z,12.93
2019-02-26T08:45:23.560Z,14.90
2019-02-26T08:48:28.778Z,14.60
2019-02-26T08:51:34.544Z,13.70
2019-02-26T08:54:40.321Z,14.73
2019-02-26T08:57:46.118Z,14.33
2019-02-26T09:00:51.880Z,13.13
2019-02-26T09:03:58.952Z,13.80
2019-02-26T09:07:05.363Z,14.33
2019-02-26T09:10:13.076Z,15.80
2019-02-26T09:13:19.224Z,14.70
2019-02-26T09:16:27.666Z,16.60
2019-02-26T09:19:35.438Z,13.50
2019-02-26T09:22:45.714Z,14.17
2019-02-26T09:25:51.538Z,13.90
2019-02-26T09:28:57.153Z,15.00
2019-02-26T09:32:06.723Z,14.10
2019-02-26T09:35:12.103Z,15.83
2019-02-26T09:38:20.085Z,14.23
2019-02-26T09:41:25.342Z,13.73
2019-02-26T09:44:33.209Z,14.00
2019-02-26T09:47:38.575Z,12.77
2019-02-26T09:50:46.334Z,13.17
2019-02-26T09:53:54.805Z,14.70
2019-02-26T09:57:00.489Z,14.27
2019-02-26T10:00:09.735Z,14.87
2019-02-26T10:03:15.502Z,14.03
2019-02-26T10:06:23.476Z,13.07
2019-02-26T10:09:28.747Z,14.43
2019-02-26T10:12:35.105Z,14.43
2019-02-26T10:15:42.805Z,13.27
2019-02-26T10:18:51.402Z,13.70
2019-02-26T10:21:58.117Z,12.60
2019-02-26T10:25:04.892Z,13.70
2019-02-26T10:28:11.714Z,13.80
2019-02-26T10:31:18.105Z,14.17
2019-02-26T10:34:28.143Z,14.17
2019-02-26T10:37:33.642Z,14.80
2019-02-26T10:40:50.739Z,14.13
2019-02-26T10:43:46.451Z,14.43
2019-02-26T10:46:52.223Z,14.77
2019-02-26T10:49:58.007Z,14.10
2019-02-26T10:53:09.647Z,12.63
2019-02-26T10:56:11.339Z,13.90
2019-02-26T10:59:19.572Z,12.97
2019-02-26T11:02:27.890Z,13.40
2019-02-26T11:05:33.215Z,12.63
2019-02-26T11:08:39.071Z,13.23
2019-02-26T11:11:44.943Z,10.23
2019-02-26T11:14:50.724Z,12.00
2019-02-26T11:17:56.496Z,11.57
2019-02-26T11:21:02.287Z,10.90
2019-02-26T11:24:08.743Z,11.70
2019-02-26T11:27:17.206Z,11.83
2019-02-26T11:30:25.870Z,11.40
2019-02-26T11:33:30.678Z,11.40
2019-02-26T11:36:38.372Z,10.83
2019-02-26T11:39:43.945Z,11.50
2019-02-26T11:42:51.234Z,12.13
2019-02-26T11:45:59.174Z,11.50
2019-02-26T11:49:04.796Z,13.10
2019-02-26T11:52:10.576Z,12.83
2019-02-26T11:55:16.725Z,12.67
2019-02-26T11:58:24.252Z,10.27
2019-02-26T12:01:32.217Z,11.60
2019-02-26T12:04:37.719Z,9.83
2019-02-26T12:07:43.570Z,10.63
2019-02-26T12:10:52.192Z,9.03
2019-02-26T12:13:56.942Z,8.47
2019-02-26T12:17:02.748Z,8.53
2019-02-26T12:20:12.074Z,8.37
2019-02-26T12:23:19.914Z,7.50
2019-02-26T12:26:27.967Z,6.57
2019-02-26T12:29:33.800Z,7.67
2019-02-26T12:32:41.298Z,8.10
2019-02-26T12:35:47.029Z,9.23
2019-02-26T12:38:53.670Z,8.50
2019-02-26T12:42:01.440Z,9.33
2019-02-26T12:45:10.086Z,8.53
2019-02-26T12:48:19.144Z,7.83
2019-02-26T12:51:25.264Z,9.27
2019-02-26T12:54:33.271Z,8.50
2019-02-26T12:57:38.081Z,6.37
2019-02-26T13:00:43.842Z,7.20
2019-02-26T13:06:57.106Z,8.00
2019-02-26T13:10:04.116Z,8.27
2019-02-26T13:13:11.386Z,7.77
2019-02-26T13:16:17.131Z,9.20
2019-02-26T13:19:29.220Z,8.57
2019-02-26T13:22:30.412Z,7.67
2019-02-26T13:25:36.305Z,8.00
2019-02-26T13:28:46.729Z,8.43
2019-02-26T13:31:56.331Z,9.20
2019-02-26T13:35:00.782Z,10.03
2019-02-26T13:38:04.747Z,8.07
2019-02-26T13:44:18.240Z,9.27
2019-02-26T13:47:25.217Z,8.07
2019-02-26T13:50:31.270Z,9.50
2019-02-26T13:53:37.045Z,8.40
2019-02-26T13:56:42.828Z,8.07
2019-02-26T13:59:48.613Z,9.17
2019-02-26T14:02:54.485Z,7.20
2019-02-26T14:06:00.272Z,8.30
2019-02-26T14:09:07.896Z,8.77
2019-02-26T14:12:14.483Z,7.33
2019-02-26T14:15:22.230Z,8.60
2019-02-26T14:18:28.314Z,9.83
2019-02-26T14:21:34.076Z,9.57
2019-02-26T14:24:39.841Z,10.33
2019-02-26T14:27:45.719Z,9.23
2019-02-26T14:30:51.799Z,8.53
2019-02-26T14:33:57.571Z,9.17
2019-02-26T14:37:03.407Z,9.53
2019-02-26T14:40:11.363Z,9.57
2019-02-26T14:43:17.157Z,9.50
2019-02-26T14:46:22.932Z,8.27
2019-02-26T14:49:28.851Z,6.87
2019-02-26T14:52:34.714Z,9.20
2019-02-26T14:55:40.566Z,8.43
2019-02-26T14:58:46.345Z,8.93
2019-02-26T15:01:52.124Z,8.07
2019-02-26T15:04:57.959Z,7.37
2019-02-26T15:08:03.772Z,8.40
2019-02-26T15:11:09.533Z,7.40
2019-02-26T15:14:15.578Z,8.87
2019-02-26T15:17:21.379Z,6.57
2019-02-26T15:20:28.585Z,8.30
2019-02-26T15:23:34.398Z,7.43
2019-02-26T15:26:40.202Z,9.20
2019-02-26T15:29:47.437Z,8.63
2019-02-26T15:32:55.800Z,9.00
2019-02-26T15:36:02.045Z,7.97
2019-02-26T15:39:09.243Z,8.43
2019-02-26T15:42:15.140Z,9.43
2019-02-26T15:45:23.946Z,8.40
2019-02-26T15:48:29.371Z,9.13
2019-02-26T15:51:35.126Z,10.10
2019-02-26T15:54:40.904Z,13.57
2019-02-26T15:57:46.739Z,12.87
2019-02-26T16:00:52.600Z,12.73
2019-02-26T16:03:58.389Z,13.53
2019-02-26T16:07:04.286Z,51.17
2019-02-26T16:10:10.995Z,58.27
2019-02-26T16:13:16.871Z,24.10
2019-02-26T16:16:22.655Z,21.83
2019-02-26T16:19:28.459Z,11.87
2019-02-26T16:22:37.361Z,12.63
2019-02-26T16:25:45.562Z,11.27
2019-02-26T16:28:51.302Z,13.97
2019-02-26T16:31:57.357Z,15.47
2019-02-26T16:35:03.135Z,18.90
2019-02-26T16:38:09.028Z,17.27
2019-02-26T16:41:15.019Z,15.90
2019-02-26T16:44:22.543Z,14.67
2019-02-26T16:47:28.421Z,22.20
2019-02-26T16:50:34.411Z,23.40
2019-02-26T16:53:41.286Z,23.23
2019-02-26T16:56:47.198Z,15.60
2019-02-26T16:59:52.969Z,14.10
2019-02-26T17:03:00.772Z,14.63
2019-02-26T17:06:06.826Z,14.63
2019-02-26T17:09:12.991Z,14.83
2019-02-26T17:12:18.849Z,14.20
2019-02-26T17:15:27.075Z,14.30
2019-02-26T17:18:33.035Z,16.70
2019-02-26T17:21:38.803Z,15.27
2019-02-26T17:24:44.621Z,18.03
2019-02-26T17:27:50.719Z,15.67
2019-02-26T17:30:57.763Z,16.47
2019-02-26T17:34:04.450Z,15.33
2019-02-26T17:37:10.263Z,17.47
2019-02-26T17:40:17.563Z,18.07
2019-02-26T17:43:25.193Z,17.60
2019-02-26T17:46:31.025Z,16.23
2019-02-26T17:49:36.913Z,15.13
2019-02-26T17:52:42.672Z,13.63
2019-02-26T17:55:48.577Z,15.17
2019-02-26T17:58:54.380Z,16.33
2019-02-26T18:02:00.292Z,18.37
2019-02-26T18:05:06.673Z,16.30
2019-02-26T18:08:16.758Z,16.07
2019-02-26T18:11:23.367Z,14.80
2019-02-26T18:14:27.545Z,13.87
2019-02-26T18:17:33.344Z,15.83
2019-02-26T18:20:40.716Z,15.13
2019-02-26T18:23:46.663Z,16.43
2019-02-26T18:26:52.609Z,18.17
2019-02-26T18:29:58.378Z,17.33
2019-02-26T18:33:04.654Z,17.53
2019-02-26T18:36:10.603Z,16.20
2019-02-26T18:39:16.547Z,16.60
2019-02-26T18:42:22.535Z,33.43
2019-02-26T18:45:29.049Z,19.67
2019-02-26T18:48:35.091Z,23.00
2019-02-26T18:51:40.970Z,27.30
2019-02-26T18:54:46.748Z,27.57
2019-02-26T18:57:54.398Z,20.70
2019-02-26T19:01:00.111Z,17.97
2019-02-26T19:04:06.259Z,16.93
2019-02-26T19:07:12.028Z,19.87
2019-02-26T19:10:20.756Z,25.23
2019-02-26T19:13:26.710Z,24.27
2019-02-26T19:16:32.477Z,22.43
2019-02-26T19:19:39.715Z,18.50
2019-02-26T19:22:51.860Z,18.73
2019-02-26T19:25:58.371Z,19.07
2019-02-26T19:29:04.162Z,19.10
2019-02-26T19:32:10.101Z,15.07
2019-02-26T19:35:16.019Z,16.67
2019-02-26T19:38:21.812Z,15.07
2019-02-26T19:41:27.821Z,16.57
2019-02-26T19:44:35.891Z,15.90
2019-02-26T19:47:41.294Z,16.67
2019-02-26T19:50:48.711Z,16.27
2019-02-26T19:53:54.564Z,16.70
2019-02-26T19:57:00.386Z,16.27
2019-02-26T20:00:07.214Z,16.60
2019-02-26T20:03:14.566Z,17.50
2019-02-26T20:06:23.270Z,15.50
2019-02-26T20:09:29.034Z,15.43
2019-02-26T20:12:34.799Z,16.23
2019-02-26T20:15:40.584Z,14.53
2019-02-26T20:18:46.479Z,22.67
2019-02-26T20:21:54.305Z,23.17
2019-02-26T20:25:01.831Z,23.93
2019-02-26T20:28:08.634Z,19.07
2019-02-26T20:31:14.440Z,17.67
2019-02-26T20:34:20.335Z,17.60
2019-02-26T20:37:26.147Z,16.20
2019-02-26T20:40:31.999Z,16.67
2019-02-26T20:43:37.848Z,17.43
2019-02-26T20:46:43.633Z,19.67
2019-02-26T20:49:49.437Z,18.07
2019-02-26T20:52:55.209Z,16.67
2019-02-26T20:56:01.137Z,16.47
2019-02-26T20:59:08.199Z,15.63
2019-02-26T21:02:14.092Z,15.27
2019-02-26T21:05:20.011Z,14.87
2019-02-26T21:08:26.158Z,15.43
2019-02-26T21:11:32.167Z,15.37
2019-02-26T21:14:41.083Z,15.20
2019-02-26T21:17:46.928Z,15.80
2019-02-26T21:20:52.824Z,17.77
2019-02-26T21:24:00.917Z,17.87
2019-02-26T21:27:06.506Z,19.50
2019-02-26T21:30:14.589Z,17.77
2019-02-26T21:33:20.552Z,16.33
2019-02-26T21:36:27.903Z,18.93
2019-02-26T21:39:34.071Z,17.90
2019-02-26T21:42:39.867Z,18.80
2019-02-26T21:45:49.170Z,20.90
2019-02-26T21:48:53.114Z,20.20
2019-02-26T21:51:59.038Z,23.60
2019-02-26T21:55:05.171Z,18.00
2019-02-26T21:58:11.122Z,29.77
2019-02-26T22:01:16.879Z,27.33
2019-02-26T22:04:22.827Z,37.20
2019-02-26T22:07:28.662Z,19.37
2019-02-26T22:10:34.484Z,17.30
2019-02-26T22:13:40.253Z,17.17
2019-02-26T22:16:46.100Z,17.83
2019-02-26T22:19:51.908Z,17.40
2019-02-26T22:23:00.175Z,18.17
2019-02-26T22:26:05.227Z,18.50
2019-02-26T22:29:12.934Z,19.30
2019-02-26T22:32:18.520Z,18.23
2019-02-26T22:35:25.937Z,17.77
2019-02-26T22:38:31.787Z,20.07
2019-02-26T22:41:37.542Z,22.33
2019-02-26T22:44:43.293Z,20.17
2019-02-26T22:47:50.146Z,18.20
2019-02-26T22:50:59.529Z,19.43
2019-02-26T22:54:03.394Z,19.37
2019-02-26T22:57:09.149Z,20.83
2019-02-26T23:01:14.982Z,20.87
2019-02-26T23:04:25.280Z,21.97
2019-02-26T23:07:31.175Z,22.37
2019-02-26T23:10:37.160Z,21.30
2019-02-26T23:13:43.812Z,22.97
2019-02-26T23:16:51.929Z,24.87
2019-02-26T23:19:57.784Z,22.23
2019-02-26T23:23:03.872Z,21.57
2019-02-26T23:26:09.877Z,20.53
2019-02-26T23:29:16.054Z,20.10
2019-02-26T23:32:23.546Z,19.53
2019-02-26T23:35:29.523Z,19.23
2019-02-26T23:38:35.277Z,19.10
2019-02-26T23:41:41.131Z,19.80
2019-02-26T23:44:50.849Z,19.07
2019-02-26T23:47:54.597Z,18.37
2019-02-26T23:51:00.525Z,20.00
2019-02-26T23:54:07.355Z,19.90
2019-02-26T23:57:13.945Z,20.23
